createdAt,value
2022-10-20T00:03:30.897Z,99.90
2022-10-20T00:08:34.285Z,99.90
2022-10-20T00:13:38.621Z,99.90
2022-10-20T00:23:47.334Z,99.90
2022-10-20T00:28:51.118Z,99.90
2022-10-20T00:33:56.010Z,99.90
2022-10-20T00:39:01.180Z,99.90
2022-10-20T00:49:19.240Z,99.90
2022-10-20T00:54:26.885Z,99.90
2022-10-20T00:59:34.241Z,99.90
2022-10-20T01:04:40.133Z,99.90
2022-10-20T01:09:43.503Z,99.90
2022-10-20T01:14:56.916Z,99.90
2022-10-20T01:25:21.042Z,99.90
2022-10-20T01:35:39.398Z,99.90
2022-10-20T01:45:52.276Z,99.90
2022-10-20T01:50:55.959Z,99.90
2022-10-20T01:56:01.870Z,99.90
2022-10-20T02:01:18.209Z,99.90
2022-10-20T02:06:34.195Z,99.90
2022-10-20T02:11:44.677Z,99.90
2022-10-20T02:16:53.362Z,99.90
2022-10-20T02:21:57.823Z,99.90
2022-10-20T02:27:05.409Z,99.90
2022-10-20T02:32:12.102Z,99.90
2022-10-20T02:42:23.757Z,99.90
2022-10-20T02:47:28.457Z,99.90
2022-10-20T02:52:31.877Z,99.90
2022-10-20T02:57:35.452Z,99.90
2022-10-20T03:02:40.370Z,99.90
2022-10-20T03:07:43.617Z,99.90
2022-10-20T03:12:46.910Z,99.90
2022-10-20T03:17:51.557Z,99.90
2022-10-20T03:22:54.824Z,99.90
2022-10-20T03:27:58.116Z,99.90
2022-10-20T03:33:02.838Z,99.90
2022-10-20T03:38:06.082Z,99.90
2022-10-20T03:43:09.486Z,99.90
2022-10-20T03:48:14.431Z,99.90
2022-10-20T03:53:17.733Z,99.90
2022-10-20T03:58:21.063Z,99.90
2022-10-20T04:03:25.744Z,99.90
2022-10-20T04:08:29.072Z,99.90
2022-10-20T04:13:32.400Z,99.90
2022-10-20T04:18:37.145Z,99.90
2022-10-20T04:23:40.436Z,99.90
2022-10-20T04:28:44.224Z,99.90
2022-10-20T04:33:48.878Z,99.90
2022-10-20T04:38:52.207Z,99.90
2022-10-20T04:43:55.486Z,99.90
2022-10-20T04:49:00.173Z,99.90
2022-10-20T04:59:13.645Z,99.90
2022-10-20T05:04:21.469Z,99.90
2022-10-20T05:09:24.818Z,99.90
2022-10-20T05:14:28.359Z,99.90
2022-10-20T05:19:33.041Z,99.90
2022-10-20T05:24:36.603Z,99.90
2022-10-20T05:29:39.931Z,99.90
2022-10-20T05:34:45.019Z,99.90
2022-10-20T05:44:56.914Z,99.90
2022-10-20T05:50:01.628Z,99.90
2022-10-20T05:55:05.607Z,99.90
2022-10-20T06:00:10.745Z,99.90
2022-10-20T06:05:18.680Z,99.90
2022-10-20T06:10:21.978Z,99.90
2022-10-20T06:15:25.226Z,99.90
2022-10-20T06:20:29.884Z,99.90
2022-10-20T06:25:33.146Z,99.90
2022-10-20T06:30:36.388Z,99.90
2022-10-20T06:35:41.142Z,99.90
2022-10-20T06:40:44.429Z,99.90
2022-10-20T06:45:55.688Z,99.90
2022-10-20T06:51:01.159Z,99.90
2022-10-20T06:56:07.363Z,99.90
2022-10-20T07:01:14.704Z,99.90
2022-10-20T07:06:22.387Z,99.90
2022-10-20T07:11:27.404Z,99.90
2022-10-20T07:16:32.854Z,99.90
2022-10-20T07:21:40.173Z,99.90
2022-10-20T07:26:45.110Z,99.90
2022-10-20T07:31:49.401Z,99.90
2022-10-20T07:36:55.127Z,99.90
2022-10-20T07:41:58.428Z,99.90
2022-10-20T07:47:01.681Z,99.90
2022-10-20T07:52:07.076Z,99.90
2022-10-20T07:57:10.388Z,99.90
2022-10-20T08:02:15.854Z,99.90
2022-10-20T08:07:20.602Z,99.90
2022-10-20T08:12:23.859Z,99.90
2022-10-20T08:17:31.685Z,99.90
2022-10-20T08:22:36.956Z,99.90
2022-10-20T08:27:40.529Z,99.90
2022-10-20T08:32:43.821Z,99.90
2022-10-20T08:37:48.497Z,99.90
2022-10-20T08:42:52.750Z,99.90
2022-10-20T08:47:58.048Z,99.60
2022-10-20T08:53:02.724Z,98.60
2022-10-20T08:58:08.342Z,98.00
2022-10-20T09:03:18.692Z,96.70
2022-10-20T09:08:24.794Z,99.30
2022-10-20T09:13:32.945Z,98.30
2022-10-20T09:18:36.739Z,96.00
2022-10-20T09:23:43.434Z,95.60
2022-10-20T09:29:11.992Z,94.70
2022-10-20T09:34:25.328Z,93.50
2022-10-20T09:39:33.341Z,92.20
2022-10-20T09:44:46.626Z,91.30
2022-10-20T09:49:59.865Z,90.80
2022-10-20T09:55:09.508Z,86.60
2022-10-20T10:00:36.323Z,86.80
2022-10-20T10:05:40.805Z,86.10
2022-10-20T10:10:47.457Z,86.20
2022-10-20T10:16:01.096Z,85.60
2022-10-20T10:21:07.522Z,84.90
2022-10-20T10:26:43.606Z,81.60
2022-10-20T10:31:52.038Z,78.60
2022-10-20T10:36:55.402Z,78.00
2022-10-20T10:42:11.468Z,78.40
2022-10-20T10:47:34.228Z,77.60
2022-10-20T10:52:50.134Z,75.80
2022-10-20T10:58:04.089Z,73.10
2022-10-20T11:03:22.335Z,74.10
2022-10-20T11:08:36.111Z,74.60
2022-10-20T11:13:48.566Z,73.80
2022-10-20T11:19:34.172Z,70.90
2022-10-20T11:24:58.563Z,71.50
2022-10-20T11:30:08.837Z,70.90
2022-10-20T11:35:23.221Z,74.20
2022-10-20T11:40:30.838Z,70.40
2022-10-20T11:45:43.491Z,68.50
2022-10-20T11:50:53.898Z,68.60
2022-10-20T11:56:43.634Z,66.80
2022-10-20T12:02:06.171Z,67.00
2022-10-20T12:07:43.110Z,63.80
2022-10-20T12:12:54.942Z,61.80
2022-10-20T12:18:06.666Z,65.60
2022-10-20T12:23:44.870Z,67.00
2022-10-20T12:28:51.898Z,64.80
2022-10-20T12:34:03.841Z,62.80
2022-10-20T12:39:17.566Z,64.40
2022-10-20T12:44:23.519Z,66.30
2022-10-20T12:49:32.724Z,63.20
2022-10-20T12:54:41.113Z,64.70
2022-10-20T12:59:47.721Z,64.20
2022-10-20T13:04:55.450Z,58.10
2022-10-20T13:10:01.713Z,59.40
2022-10-20T13:15:14.554Z,61.10
2022-10-20T13:20:27.184Z,63.50
2022-10-20T13:25:37.220Z,67.90
2022-10-20T13:31:01.248Z,69.10
2022-10-20T13:36:10.247Z,71.00
2022-10-20T13:41:21.584Z,72.10
2022-10-20T13:46:41.876Z,72.60
2022-10-20T13:51:48.486Z,72.00
2022-10-20T13:56:52.934Z,71.00
2022-10-20T14:01:59.832Z,71.70
2022-10-20T14:07:08.662Z,71.80
2022-10-20T14:12:16.018Z,73.50
2022-10-20T14:17:23.333Z,74.30
2022-10-20T14:22:26.868Z,76.00
2022-10-20T14:27:32.617Z,75.50
2022-10-20T14:32:41.653Z,74.60
2022-10-20T14:37:51.914Z,75.20
2022-10-20T14:43:00.617Z,74.10
2022-10-20T14:48:09.682Z,69.80
2022-10-20T14:53:29.054Z,70.00
2022-10-20T14:58:35.475Z,73.30
2022-10-20T15:03:40.238Z,75.20
2022-10-20T15:08:54.882Z,74.50
2022-10-20T15:13:59.149Z,76.10
2022-10-20T15:19:27.625Z,77.30
2022-10-20T15:24:31.018Z,78.10
2022-10-20T15:29:34.733Z,81.00
2022-10-20T15:34:39.369Z,82.20
2022-10-20T15:39:42.631Z,83.40
2022-10-20T15:44:47.202Z,84.20
2022-10-20T15:49:52.242Z,84.40
2022-10-20T15:54:55.522Z,86.90
2022-10-20T15:59:59.198Z,88.30
2022-10-20T16:05:04.066Z,90.10
2022-10-20T16:10:09.570Z,91.00
2022-10-20T16:15:13.075Z,92.70
2022-10-20T16:20:17.948Z,94.00
2022-10-20T16:25:21.249Z,96.30
2022-10-20T16:30:24.541Z,99.20
2022-10-20T16:35:29.272Z,98.60
2022-10-20T16:40:33.080Z,98.50
2022-10-20T16:45:40.748Z,98.90
2022-10-20T16:50:45.681Z,99.90
2022-10-20T16:55:53.771Z,99.90
2022-10-20T17:01:06.432Z,99.90
2022-10-20T17:06:12.171Z,99.90
2022-10-20T17:11:17.280Z,99.90
2022-10-20T17:16:26.165Z,99.90
2022-10-20T17:21:34.907Z,99.90
2022-10-20T17:26:38.164Z,99.90
2022-10-20T17:31:41.519Z,99.90
2022-10-20T17:36:46.164Z,99.90
2022-10-20T17:41:49.612Z,99.90
2022-10-20T17:46:53.094Z,99.90
2022-10-20T17:51:57.774Z,99.90
2022-10-20T17:57:01.019Z,99.90
2022-10-20T18:02:04.520Z,99.90
2022-10-20T18:07:09.212Z,99.90
2022-10-20T18:12:12.873Z,99.90
2022-10-20T18:17:17.323Z,99.90
2022-10-20T18:22:22.022Z,99.90
2022-10-20T18:27:25.504Z,99.90
2022-10-20T18:32:28.825Z,99.90
2022-10-20T18:37:33.488Z,99.90
2022-10-20T18:42:36.830Z,99.90
2022-10-20T18:47:41.589Z,99.90
2022-10-20T18:52:46.501Z,99.90
2022-10-20T18:57:49.836Z,99.90
2022-10-20T19:02:55.784Z,99.90
2022-10-20T19:08:04.507Z,99.90
2022-10-20T19:13:08.102Z,99.90
2022-10-20T19:18:11.381Z,99.90
2022-10-20T19:23:16.021Z,99.90
2022-10-20T19:28:19.398Z,99.90
2022-10-20T19:33:23.097Z,99.90
2022-10-20T19:38:27.800Z,99.90
2022-10-20T19:43:31.173Z,99.90
2022-10-20T19:48:35.592Z,99.90
2022-10-20T19:53:41.746Z,99.90
2022-10-20T19:58:46.823Z,99.90
2022-10-20T20:03:50.235Z,99.90
2022-10-20T20:08:59.191Z,99.90
2022-10-20T20:14:04.922Z,99.90
2022-10-20T20:19:08.638Z,99.90
2022-10-20T20:24:14.785Z,99.90
2022-10-20T20:29:18.168Z,99.90
2022-10-20T20:34:21.425Z,99.90
2022-10-20T20:39:26.075Z,99.90
2022-10-20T20:44:29.344Z,99.90
2022-10-20T20:49:32.629Z,99.90
2022-10-20T20:54:37.405Z,99.90
2022-10-20T20:59:40.690Z,99.90
2022-10-20T21:04:44.080Z,99.90
2022-10-20T21:09:49.897Z,99.90
2022-10-20T21:14:53.196Z,99.90
2022-10-20T21:19:56.464Z,99.90
2022-10-20T21:25:01.099Z,99.90
2022-10-20T21:30:04.760Z,99.90
2022-10-20T21:35:08.858Z,99.90
2022-10-20T21:40:14.079Z,99.90
2022-10-20T21:45:19.137Z,99.90
2022-10-20T21:50:22.751Z,99.90
2022-10-20T21:55:27.430Z,99.90
2022-10-20T22:00:30.890Z,99.90
2022-10-20T22:05:34.160Z,99.90
2022-10-20T22:10:39.713Z,99.90
2022-10-20T22:15:43.721Z,99.90
2022-10-20T22:20:47.235Z,99.90
2022-10-20T22:25:54.792Z,99.90
2022-10-20T22:30:58.147Z,99.90
2022-10-20T22:36:01.642Z,99.90
2022-10-20T22:41:06.300Z,99.90
2022-10-20T22:46:09.974Z,99.90
2022-10-20T22:51:13.534Z,99.90
2022-10-20T22:56:20.602Z,99.90
2022-10-20T23:01:25.593Z,99.90
2022-10-20T23:06:29.133Z,99.90
2022-10-20T23:11:33.861Z,99.90
2022-10-20T23:16:37.175Z,99.90
2022-10-20T23:21:40.436Z,99.90
2022-10-20T23:26:45.118Z,99.90
2022-10-20T23:31:48.393Z,99.90
2022-10-20T23:36:51.804Z,99.90
2022-10-20T23:41:56.454Z,99.90
2022-10-20T23:46:59.743Z,99.90
2022-10-20T23:52:03.070Z,99.90
2022-10-20T23:57:07.698Z,99.90
